sensor_id;sensor_type;location;lat;lon;timestamp;noise_LAeq;noise_LA_min;noise_LA_max;noise_LA01;noise_LA95
67900;Laerm;54700;51.796;10.956;2023-11-21T00:02:21;34.57;28.36;49.00;;
67900;Laerm;54700;51.796;10.956;2023-11-21T00:04:48;50.35;28.14;68.16;;
67900;Laerm;54700;51.796;10.956;2023-11-21T00:07:17;31.76;28.69;36.64;;
67900;Laerm;54700;51.796;10.956;2023-11-21T00:09:44;31.47;27.81;37.49;;
67900;Laerm;54700;51.796;10.956;2023-11-21T00:12:11;30.54;28.28;38.46;;
67900;Laerm;54700;51.796;10.956;2023-11-21T00:14:40;30.41;27.83;36.91;;
67900;Laerm;54700;51.796;10.956;2023-11-21T00:17:07;30.25;28.07;37.13;;
67900;Laerm;54700;51.796;10.956;2023-11-21T00:19:34;30.18;27.43;38.65;;
67900;Laerm;54700;51.796;10.956;2023-11-21T00:22:01;51.72;27.78;67.80;;
67900;Laerm;54700;51.796;10.956;2023-11-21T00:24:29;32.50;28.23;43.54;;
67900;Laerm;54700;51.796;10.956;2023-11-21T00:26:57;30.27;27.75;37.64;;
67900;Laerm;54700;51.796;10.956;2023-11-21T00:29:24;32.03;28.03;41.79;;
67900;Laerm;54700;51.796;10.956;2023-11-21T00:31:52;31.26;28.10;37.81;;
67900;Laerm;54700;51.796;10.956;2023-11-21T00:34:19;50.05;27.85;65.34;;
67900;Laerm;54700;51.796;10.956;2023-11-21T00:36:46;54.14;28.14;67.47;;
67900;Laerm;54700;51.796;10.956;2023-11-21T00:39:13;32.22;28.28;38.94;;
67900;Laerm;54700;51.796;10.956;2023-11-21T00:41:41;29.68;27.67;35.21;;
67900;Laerm;54700;51.796;10.956;2023-11-21T00:44:10;30.37;27.58;36.26;;
67900;Laerm;54700;51.796;10.956;2023-11-21T00:46:37;52.55;28.28;68.39;;
67900;Laerm;54700;51.796;10.956;2023-11-21T00:49:04;57.49;27.23;73.42;;
67900;Laerm;54700;51.796;10.956;2023-11-21T00:51:31;31.86;27.68;40.70;;
67900;Laerm;54700;51.796;10.956;2023-11-21T00:53:58;34.64;29.10;48.71;;
67900;Laerm;54700;51.796;10.956;2023-11-21T00:56:25;56.21;34.16;71.14;;
67900;Laerm;54700;51.796;10.956;2023-11-21T00:58:54;49.67;28.47;64.88;;
67900;Laerm;54700;51.796;10.956;2023-11-21T01:01:21;53.25;27.93;72.11;;
67900;Laerm;54700;51.796;10.956;2023-11-21T01:03:48;31.12;28.50;40.57;;
67900;Laerm;54700;51.796;10.956;2023-11-21T01:06:15;32.56;28.03;42.52;;
67900;Laerm;54700;51.796;10.956;2023-11-21T01:08:43;32.68;28.61;53.28;;
67900;Laerm;54700;51.796;10.956;2023-11-21T01:11:10;31.23;28.58;36.99;;
67900;Laerm;54700;51.796;10.956;2023-11-21T01:13:38;31.46;28.77;38.16;;
67900;Laerm;54700;51.796;10.956;2023-11-21T01:16:07;30.81;28.24;35.13;;
67900;Laerm;54700;51.796;10.956;2023-11-21T01:18:34;47.73;27.55;63.88;;
67900;Laerm;54700;51.796;10.956;2023-11-21T01:21:02;30.47;28.31;36.22;;
67900;Laerm;54700;51.796;10.956;2023-11-21T01:23:29;30.01;27.72;36.29;;
67900;Laerm;54700;51.796;10.956;2023-11-21T01:25:57;48.48;28.45;65.01;;
67900;Laerm;54700;51.796;10.956;2023-11-21T01:28:24;33.11;27.76;46.98;;
67900;Laerm;54700;51.796;10.956;2023-11-21T01:30:52;46.79;27.81;62.47;;
67900;Laerm;54700;51.796;10.956;2023-11-21T01:33:23;31.85;28.24;42.71;;
67900;Laerm;54700;51.796;10.956;2023-11-21T01:35:50;30.81;28.30;36.59;;
67900;Laerm;54700;51.796;10.956;2023-11-21T01:38:20;29.40;27.49;35.50;;
67900;Laerm;54700;51.796;10.956;2023-11-21T01:40:47;30.84;28.34;38.18;;
67900;Laerm;54700;51.796;10.956;2023-11-21T01:43:14;31.89;28.25;39.98;;
67900;Laerm;54700;51.796;10.956;2023-11-21T01:45:42;31.78;27.98;36.97;;
67900;Laerm;54700;51.796;10.956;2023-11-21T01:48:10;51.77;27.84;68.75;;
67900;Laerm;54700;51.796;10.956;2023-11-21T01:50:40;30.46;27.57;37.18;;
67900;Laerm;54700;51.796;10.956;2023-11-21T01:53:08;52.78;28.11;69.78;;
67900;Laerm;54700;51.796;10.956;2023-11-21T01:55:35;53.89;28.08;70.38;;
67900;Laerm;54700;51.796;10.956;2023-11-21T01:58:04;45.49;27.31;65.31;;
67900;Laerm;54700;51.796;10.956;2023-11-21T02:00:33;30.59;27.13;39.33;;
67900;Laerm;54700;51.796;10.956;2023-11-21T02:03:00;54.06;27.72;69.29;;
67900;Laerm;54700;51.796;10.956;2023-11-21T02:05:27;31.02;27.72;41.41;;
67900;Laerm;54700;51.796;10.956;2023-11-21T02:07:56;29.18;27.28;38.19;;
67900;Laerm;54700;51.796;10.956;2023-11-21T02:10:23;29.29;27.31;34.75;;
67900;Laerm;54700;51.796;10.956;2023-11-21T02:12:51;30.23;27.76;40.58;;
67900;Laerm;54700;51.796;10.956;2023-11-21T02:15:18;52.38;27.63;71.44;;
67900;Laerm;54700;51.796;10.956;2023-11-21T02:17:46;29.85;27.39;37.27;;
67900;Laerm;54700;51.796;10.956;2023-11-21T02:20:17;30.48;27.97;38.51;;
67900;Laerm;54700;51.796;10.956;2023-11-21T02:22:49;50.63;27.34;67.84;;
67900;Laerm;54700;51.796;10.956;2023-11-21T02:25:23;29.33;27.50;35.22;;
67900;Laerm;54700;51.796;10.956;2023-11-21T02:27:50;30.94;27.83;38.03;;
67900;Laerm;54700;51.796;10.956;2023-11-21T02:30:17;31.52;28.41;39.91;;
67900;Laerm;54700;51.796;10.956;2023-11-21T02:32:44;30.43;27.67;39.07;;
67900;Laerm;54700;51.796;10.956;2023-11-21T02:35:11;30.34;27.96;35.98;;
67900;Laerm;54700;51.796;10.956;2023-11-21T02:37:38;52.96;28.00;69.44;;
67900;Laerm;54700;51.796;10.956;2023-11-21T02:40:10;30.66;27.74;47.87;;
67900;Laerm;54700;51.796;10.956;2023-11-21T02:42:38;31.82;28.87;44.35;;
67900;Laerm;54700;51.796;10.956;2023-11-21T02:45:07;37.35;32.24;54.94;;
67900;Laerm;54700;51.796;10.956;2023-11-21T02:47:34;50.00;31.37;65.85;;
67900;Laerm;54700;51.796;10.956;2023-11-21T02:50:02;31.54;28.60;55.87;;
67900;Laerm;54700;51.796;10.956;2023-11-21T02:52:29;31.69;28.96;46.37;;
67900;Laerm;54700;51.796;10.956;2023-11-21T02:54:58;52.25;29.63;69.06;;
67900;Laerm;54700;51.796;10.956;2023-11-21T02:57:27;59.74;32.57;73.42;;
67900;Laerm;54700;51.796;10.956;2023-11-21T02:59:53;34.94;31.35;52.36;;
67900;Laerm;54700;51.796;10.956;2023-11-21T03:02:22;52.80;32.23;69.99;;
67900;Laerm;54700;51.796;10.956;2023-11-21T03:04:49;36.47;32.24;58.28;;
67900;Laerm;54700;51.796;10.956;2023-11-21T03:07:15;52.66;31.51;68.94;;
67900;Laerm;54700;51.796;10.956;2023-11-21T03:09:44;34.45;31.31;54.16;;
67900;Laerm;54700;51.796;10.956;2023-11-21T03:12:11;36.38;32.08;44.94;;
67900;Laerm;54700;51.796;10.956;2023-11-21T03:14:41;56.50;32.11;69.05;;
67900;Laerm;54700;51.796;10.956;2023-11-21T03:17:08;35.81;32.48;50.26;;
67900;Laerm;54700;51.796;10.956;2023-11-21T03:19:35;51.08;30.98;68.71;;
67900;Laerm;54700;51.796;10.956;2023-11-21T03:22:02;47.30;30.41;66.47;;
67900;Laerm;54700;51.796;10.956;2023-11-21T03:24:30;55.38;32.11;69.87;;
67900;Laerm;54700;51.796;10.956;2023-11-21T03:26:56;49.05;32.91;64.01;;
67900;Laerm;54700;51.796;10.956;2023-11-21T03:29:23;56.93;33.56;71.29;;
67900;Laerm;54700;51.796;10.956;2023-11-21T03:31:52;58.61;33.50;68.99;;
67900;Laerm;54700;51.796;10.956;2023-11-21T03:34:23;52.10;32.20;66.45;;
67900;Laerm;54700;51.796;10.956;2023-11-21T03:36:52;57.67;31.93;71.75;;
67900;Laerm;54700;51.796;10.956;2023-11-21T03:39:19;51.57;31.42;66.97;;
67900;Laerm;54700;51.796;10.956;2023-11-21T03:41:47;54.52;32.49;69.47;;
67900;Laerm;54700;51.796;10.956;2023-11-21T03:44:14;51.75;32.02;67.64;;
67900;Laerm;54700;51.796;10.956;2023-11-21T03:46:41;37.00;32.96;58.87;;
67900;Laerm;54700;51.796;10.956;2023-11-21T03:49:10;53.01;31.92;68.99;;
67900;Laerm;54700;51.796;10.956;2023-11-21T03:51:37;52.36;31.93;68.67;;
67900;Laerm;54700;51.796;10.956;2023-11-21T03:54:04;56.16;33.00;71.43;;
67900;Laerm;54700;51.796;10.956;2023-11-21T03:56:31;52.33;31.72;67.98;;
67900;Laerm;54700;51.796;10.956;2023-11-21T03:58:58;39.18;34.00;51.27;;
67900;Laerm;54700;51.796;10.956;2023-11-21T04:01:24;54.51;32.60;70.51;;
67900;Laerm;54700;51.796;10.956;2023-11-21T04:03:51;37.72;32.90;47.92;;
67900;Laerm;54700;51.796;10.956;2023-11-21T04:06:20;51.81;32.64;66.68;;
67900;Laerm;54700;51.796;10.956;2023-11-21T04:08:46;57.36;33.42;74.07;;
67900;Laerm;54700;51.796;10.956;2023-11-21T04:11:13;55.36;34.79;68.29;;
67900;Laerm;54700;51.796;10.956;2023-11-21T04:13:41;52.95;34.42;66.61;;
67900;Laerm;54700;51.796;10.956;2023-11-21T04:16:09;58.06;37.36;70.29;;
67900;Laerm;54700;51.796;10.956;2023-11-21T04:18:36;57.30;37.62;71.35;;
67900;Laerm;54700;51.796;10.956;2023-11-21T04:21:04;59.19;37.32;69.45;;
67900;Laerm;54700;51.796;10.956;2023-11-21T04:23:34;53.08;36.55;69.58;;
67900;Laerm;54700;51.796;10.956;2023-11-21T04:26:01;56.32;37.78;67.74;;
67900;Laerm;54700;51.796;10.956;2023-11-21T04:28:28;61.61;36.14;71.97;;
67900;Laerm;54700;51.796;10.956;2023-11-21T04:30:56;60.59;34.91;74.67;;
67900;Laerm;54700;51.796;10.956;2023-11-21T04:33:23;60.13;36.86;72.53;;
67900;Laerm;54700;51.796;10.956;2023-11-21T04:35:51;55.10;34.27;69.92;;
67900;Laerm;54700;51.796;10.956;2023-11-21T04:38:17;61.67;37.25;71.90;;
67900;Laerm;54700;51.796;10.956;2023-11-21T04:40:46;62.79;37.54;75.83;;
67900;Laerm;54700;51.796;10.956;2023-11-21T04:43:13;59.45;35.95;71.63;;
67900;Laerm;54700;51.796;10.956;2023-11-21T04:45:40;62.08;37.59;73.27;;
67900;Laerm;54700;51.796;10.956;2023-11-21T04:48:07;61.14;36.53;71.03;;
67900;Laerm;54700;51.796;10.956;2023-11-21T04:50:33;60.47;38.31;73.32;;
67900;Laerm;54700;51.796;10.956;2023-11-21T04:53:00;62.58;38.27;70.38;;
67900;Laerm;54700;51.796;10.956;2023-11-21T04:55:27;59.94;38.20;70.83;;
67900;Laerm;54700;51.796;10.956;2023-11-21T04:57:58;59.37;38.33;70.34;;
67900;Laerm;54700;51.796;10.956;2023-11-21T05:00:25;60.04;37.50;72.62;;
67900;Laerm;54700;51.796;10.956;2023-11-21T05:02:52;64.45;41.05;73.91;;
67900;Laerm;54700;51.796;10.956;2023-11-21T05:05:19;61.96;39.51;76.45;;
67900;Laerm;54700;51.796;10.956;2023-11-21T05:07:46;60.55;38.13;72.96;;
67900;Laerm;54700;51.796;10.956;2023-11-21T05:10:14;60.51;39.21;71.64;;
67900;Laerm;54700;51.796;10.956;2023-11-21T05:12:41;61.97;40.53;72.24;;
67900;Laerm;54700;51.796;10.956;2023-11-21T05:15:13;62.68;42.05;74.06;;
67900;Laerm;54700;51.796;10.956;2023-11-21T05:17:41;62.78;38.80;73.14;;
67900;Laerm;54700;51.796;10.956;2023-11-21T05:20:09;64.18;37.60;73.33;;
67900;Laerm;54700;51.796;10.956;2023-11-21T05:22:37;62.12;43.09;73.45;;
67900;Laerm;54700;51.796;10.956;2023-11-21T05:25:05;64.50;43.32;72.47;;
67900;Laerm;54700;51.796;10.956;2023-11-21T05:27:33;63.24;44.88;72.48;;
67900;Laerm;54700;51.796;10.956;2023-11-21T05:30:01;66.63;45.42;75.89;;
67900;Laerm;54700;51.796;10.956;2023-11-21T05:32:29;64.96;43.76;75.02;;
67900;Laerm;54700;51.796;10.956;2023-11-21T05:34:56;64.43;43.05;73.54;;
67900;Laerm;54700;51.796;10.956;2023-11-21T05:37:24;64.51;47.24;73.06;;
67900;Laerm;54700;51.796;10.956;2023-11-21T05:39:53;63.54;41.60;72.91;;
67900;Laerm;54700;51.796;10.956;2023-11-21T05:42:21;64.06;44.86;74.60;;
67900;Laerm;54700;51.796;10.956;2023-11-21T05:44:48;64.79;46.18;73.12;;
67900;Laerm;54700;51.796;10.956;2023-11-21T05:47:15;63.77;43.89;75.10;;
67900;Laerm;54700;51.796;10.956;2023-11-21T05:49:44;62.36;43.51;72.02;;
67900;Laerm;54700;51.796;10.956;2023-11-21T05:52:16;68.37;56.26;77.25;;
67900;Laerm;54700;51.796;10.956;2023-11-21T05:54:46;63.68;44.63;76.67;;
67900;Laerm;54700;51.796;10.956;2023-11-21T05:57:15;64.96;39.78;72.53;;
67900;Laerm;54700;51.796;10.956;2023-11-21T05:59:43;64.43;47.76;83.55;;
67900;Laerm;54700;51.796;10.956;2023-11-21T06:02:12;66.77;51.41;92.76;;
67900;Laerm;54700;51.796;10.956;2023-11-21T06:04:54;64.14;50.97;82.32;;
67900;Laerm;54700;51.796;10.956;2023-11-21T06:07:28;65.40;51.00;88.36;;
67900;Laerm;54700;51.796;10.956;2023-11-21T06:09:55;63.56;44.10;71.40;;
67900;Laerm;54700;51.796;10.956;2023-11-21T06:12:22;65.70;45.94;74.07;;
67900;Laerm;54700;51.796;10.956;2023-11-21T06:14:49;63.95;41.44;78.60;;
67900;Laerm;54700;51.796;10.956;2023-11-21T06:17:16;65.37;42.42;73.56;;
67900;Laerm;54700;51.796;10.956;2023-11-21T06:19:47;65.85;42.39;73.33;;
67900;Laerm;54700;51.796;10.956;2023-11-21T06:22:15;64.84;47.91;73.86;;
67900;Laerm;54700;51.796;10.956;2023-11-21T06:24:42;65.92;50.61;73.61;;
67900;Laerm;54700;51.796;10.956;2023-11-21T06:27:09;64.71;42.65;75.93;;
67900;Laerm;54700;51.796;10.956;2023-11-21T06:29:37;65.74;54.09;72.27;;
67900;Laerm;54700;51.796;10.956;2023-11-21T06:32:05;67.67;50.43;74.81;;
67900;Laerm;54700;51.796;10.956;2023-11-21T06:34:32;67.22;47.70;76.17;;
67900;Laerm;54700;51.796;10.956;2023-11-21T06:37:00;65.59;45.12;74.11;;
67900;Laerm;54700;51.796;10.956;2023-11-21T06:39:30;66.18;46.25;75.16;;
67900;Laerm;54700;51.796;10.956;2023-11-21T06:41:58;65.61;43.87;72.46;;
67900;Laerm;54700;51.796;10.956;2023-11-21T06:44:27;66.14;46.78;78.25;;
67900;Laerm;54700;51.796;10.956;2023-11-21T06:47:07;66.63;46.76;75.85;;
67900;Laerm;54700;51.796;10.956;2023-11-21T06:49:40;67.03;47.72;76.73;;
67900;Laerm;54700;51.796;10.956;2023-11-21T06:52:09;66.78;53.44;76.16;;
67900;Laerm;54700;51.796;10.956;2023-11-21T06:54:51;67.12;51.74;79.83;;
67900;Laerm;54700;51.796;10.956;2023-11-21T06:57:44;65.83;54.02;76.29;;
67900;Laerm;54700;51.796;10.956;2023-11-21T07:00:14;66.19;42.07;75.92;;
67900;Laerm;54700;51.796;10.956;2023-11-21T07:02:52;67.23;44.98;81.16;;
67900;Laerm;54700;51.796;10.956;2023-11-21T07:05:20;63.26;41.04;72.39;;
67900;Laerm;54700;51.796;10.956;2023-11-21T07:07:49;63.60;51.95;70.81;;
67900;Laerm;54700;51.796;10.956;2023-11-21T07:10:16;62.85;39.57;72.62;;
67900;Laerm;54700;51.796;10.956;2023-11-21T07:12:43;64.68;39.93;74.40;;
67900;Laerm;54700;51.796;10.956;2023-11-21T07:15:10;64.85;43.48;74.24;;
67900;Laerm;54700;51.796;10.956;2023-11-21T07:17:38;63.86;40.28;72.13;;
67900;Laerm;54700;51.796;10.956;2023-11-21T07:20:06;63.95;41.09;72.30;;
67900;Laerm;54700;51.796;10.956;2023-11-21T07:22:34;66.47;44.90;79.36;;
67900;Laerm;54700;51.796;10.956;2023-11-21T07:25:07;63.62;45.35;75.48;;
67900;Laerm;54700;51.796;10.956;2023-11-21T07:27:35;63.73;44.66;72.12;;
67900;Laerm;54700;51.796;10.956;2023-11-21T07:30:05;64.00;42.64;74.23;;
67900;Laerm;54700;51.796;10.956;2023-11-21T07:32:35;65.20;42.27;77.44;;
67900;Laerm;54700;51.796;10.956;2023-11-21T07:35:06;68.71;48.98;80.34;;
67900;Laerm;54700;51.796;10.956;2023-11-21T07:37:36;64.94;47.97;75.60;;
67900;Laerm;54700;51.796;10.956;2023-11-21T07:40:06;66.24;43.64;76.09;;
67900;Laerm;54700;51.796;10.956;2023-11-21T07:42:37;67.53;51.91;78.31;;
67900;Laerm;54700;51.796;10.956;2023-11-21T07:45:07;67.05;42.17;78.71;;
67900;Laerm;54700;51.796;10.956;2023-11-21T07:47:38;67.03;41.21;79.28;;
67900;Laerm;54700;51.796;10.956;2023-11-21T07:50:07;68.21;48.27;79.06;;
67900;Laerm;54700;51.796;10.956;2023-11-21T07:52:37;64.32;40.48;74.92;;
67900;Laerm;54700;51.796;10.956;2023-11-21T07:55:07;66.20;48.29;73.65;;
67900;Laerm;54700;51.796;10.956;2023-11-21T07:57:37;64.88;45.29;73.38;;
67900;Laerm;54700;51.796;10.956;2023-11-21T08:00:05;68.13;48.53;83.21;;
67900;Laerm;54700;51.796;10.956;2023-11-21T08:02:35;65.95;42.37;77.05;;
67900;Laerm;54700;51.796;10.956;2023-11-21T08:05:04;65.69;42.92;73.67;;
67900;Laerm;54700;51.796;10.956;2023-11-21T08:07:33;66.80;46.21;79.12;;
67900;Laerm;54700;51.796;10.956;2023-11-21T08:10:03;66.32;45.68;74.68;;
67900;Laerm;54700;51.796;10.956;2023-11-21T08:12:32;65.08;43.22;74.83;;
67900;Laerm;54700;51.796;10.956;2023-11-21T08:15:00;66.84;40.68;77.31;;
67900;Laerm;54700;51.796;10.956;2023-11-21T08:17:28;64.92;49.81;72.58;;
67900;Laerm;54700;51.796;10.956;2023-11-21T08:19:57;65.89;41.68;74.82;;
67900;Laerm;54700;51.796;10.956;2023-11-21T08:22:23;65.96;43.70;74.74;;
67900;Laerm;54700;51.796;10.956;2023-11-21T08:24:51;66.28;51.50;73.87;;
67900;Laerm;54700;51.796;10.956;2023-11-21T08:27:18;65.17;45.49;74.30;;
67900;Laerm;54700;51.796;10.956;2023-11-21T08:29:51;69.07;53.19;79.92;;
67900;Laerm;54700;51.796;10.956;2023-11-21T08:32:18;66.92;49.42;79.06;;
67900;Laerm;54700;51.796;10.956;2023-11-21T08:34:53;67.59;55.63;74.13;;
67900;Laerm;54700;51.796;10.956;2023-11-21T08:37:33;68.94;44.55;75.68;;
67900;Laerm;54700;51.796;10.956;2023-11-21T08:43:41;67.52;51.05;77.50;;
67900;Laerm;54700;51.796;10.956;2023-11-21T08:49:42;67.91;55.13;79.37;;
67900;Laerm;54700;51.796;10.956;2023-11-21T09:01:12;67.45;47.66;78.92;;
67900;Laerm;54700;51.796;10.956;2023-11-21T09:02:17;66.38;45.92;80.87;;
67900;Laerm;54700;51.796;10.956;2023-11-21T09:04:49;67.22;48.69;76.43;;
67900;Laerm;54700;51.796;10.956;2023-11-21T09:07:23;67.08;41.14;77.99;;
67900;Laerm;54700;51.796;10.956;2023-11-21T09:09:53;65.67;43.41;73.25;;
67900;Laerm;54700;51.796;10.956;2023-11-21T09:12:27;65.82;41.44;74.02;;
67900;Laerm;54700;51.796;10.956;2023-11-21T09:15:03;66.03;50.08;73.13;;
67900;Laerm;54700;51.796;10.956;2023-11-21T09:17:39;67.25;45.69;74.03;;
67900;Laerm;54700;51.796;10.956;2023-11-21T09:20:10;65.58;43.75;73.34;;
67900;Laerm;54700;51.796;10.956;2023-11-21T09:22:38;64.64;41.47;73.19;;
67900;Laerm;54700;51.796;10.956;2023-11-21T09:25:06;66.25;47.17;76.85;;
67900;Laerm;54700;51.796;10.956;2023-11-21T09:27:34;66.57;45.86;74.71;;
67900;Laerm;54700;51.796;10.956;2023-11-21T09:30:03;68.02;44.53;75.87;;
67900;Laerm;54700;51.796;10.956;2023-11-21T09:32:33;67.32;47.27;75.13;;
67900;Laerm;54700;51.796;10.956;2023-11-21T09:35:04;66.94;46.61;74.46;;
67900;Laerm;54700;51.796;10.956;2023-11-21T09:37:35;65.23;40.77;73.31;;
67900;Laerm;54700;51.796;10.956;2023-11-21T09:40:06;66.76;40.15;75.70;;
67900;Laerm;54700;51.796;10.956;2023-11-21T09:42:55;67.25;44.04;77.96;;
67900;Laerm;54700;51.796;10.956;2023-11-21T09:45:34;65.71;40.38;74.84;;
67900;Laerm;54700;51.796;10.956;2023-11-21T09:48:20;67.51;49.98;75.06;;
67900;Laerm;54700;51.796;10.956;2023-11-21T09:51:01;66.07;44.14;77.28;;
67900;Laerm;54700;51.796;10.956;2023-11-21T09:53:35;67.63;44.86;73.79;;
67900;Laerm;54700;51.796;10.956;2023-11-21T09:56:18;66.09;46.17;75.47;;
67900;Laerm;54700;51.796;10.956;2023-11-21T09:58:53;66.47;45.78;75.77;;
67900;Laerm;54700;51.796;10.956;2023-11-21T10:01:41;67.94;49.42;75.98;;
67900;Laerm;54700;51.796;10.956;2023-11-21T10:04:21;66.51;46.88;75.49;;
67900;Laerm;54700;51.796;10.956;2023-11-21T10:06:57;66.80;43.05;77.12;;
67900;Laerm;54700;51.796;10.956;2023-11-21T10:09:52;65.32;42.07;74.20;;
67900;Laerm;54700;51.796;10.956;2023-11-21T10:12:35;67.41;44.78;76.38;;
67900;Laerm;54700;51.796;10.956;2023-11-21T10:15:24;65.98;41.71;75.19;;
67900;Laerm;54700;51.796;10.956;2023-11-21T10:17:55;64.69;39.77;75.69;;
67900;Laerm;54700;51.796;10.956;2023-11-21T10:20:23;65.57;42.97;73.53;;
67900;Laerm;54700;51.796;10.956;2023-11-21T10:22:50;65.55;41.45;75.47;;
67900;Laerm;54700;51.796;10.956;2023-11-21T10:25:51;66.31;45.97;74.71;;
67900;Laerm;54700;51.796;10.956;2023-11-21T10:28:20;66.15;46.32;77.20;;
67900;Laerm;54700;51.796;10.956;2023-11-21T10:30:48;67.43;46.00;78.68;;
67900;Laerm;54700;51.796;10.956;2023-11-21T10:33:30;66.25;44.02;75.02;;
67900;Laerm;54700;51.796;10.956;2023-11-21T10:36:25;65.08;42.29;74.45;;
67900;Laerm;54700;51.796;10.956;2023-11-21T10:48:57;66.00;44.07;74.90;;
67900;Laerm;54700;51.796;10.956;2023-11-21T10:51:31;64.65;42.52;74.09;;
67900;Laerm;54700;51.796;10.956;2023-11-21T10:54:01;65.57;41.86;75.86;;
67900;Laerm;54700;51.796;10.956;2023-11-21T10:56:41;63.16;43.08;74.43;;
67900;Laerm;54700;51.796;10.956;2023-11-21T10:59:34;65.97;47.21;76.23;;
67900;Laerm;54700;51.796;10.956;2023-11-21T11:02:24;65.57;47.34;75.36;;
67900;Laerm;54700;51.796;10.956;2023-11-21T11:05:22;63.93;45.46;72.50;;
67900;Laerm;54700;51.796;10.956;2023-11-21T11:07:51;62.03;43.17;79.23;;
67900;Laerm;54700;51.796;10.956;2023-11-21T11:10:20;65.50;38.89;77.93;;
67900;Laerm;54700;51.796;10.956;2023-11-21T11:12:53;62.50;43.03;71.89;;
67900;Laerm;54700;51.796;10.956;2023-11-21T11:15:21;64.72;40.72;74.87;;
67900;Laerm;54700;51.796;10.956;2023-11-21T11:17:52;62.49;39.65;72.52;;
67900;Laerm;54700;51.796;10.956;2023-11-21T11:20:23;62.39;40.23;73.78;;
67900;Laerm;54700;51.796;10.956;2023-11-21T11:22:59;64.18;42.41;72.41;;
67900;Laerm;54700;51.796;10.956;2023-11-21T11:25:43;61.29;39.32;72.80;;
67900;Laerm;54700;51.796;10.956;2023-11-21T11:28:17;62.65;41.09;70.98;;
67900;Laerm;54700;51.796;10.956;2023-11-21T11:30:56;63.61;43.80;73.25;;
67900;Laerm;54700;51.796;10.956;2023-11-21T11:33:36;65.01;42.55;75.70;;
67900;Laerm;54700;51.796;10.956;2023-11-21T11:36:10;64.37;44.59;75.04;;
67900;Laerm;54700;51.796;10.956;2023-11-21T11:38:45;63.78;44.23;71.66;;
67900;Laerm;54700;51.796;10.956;2023-11-21T11:41:24;65.18;40.63;74.20;;
67900;Laerm;54700;51.796;10.956;2023-11-21T11:43:52;63.99;47.90;72.88;;
67900;Laerm;54700;51.796;10.956;2023-11-21T11:46:40;65.08;46.01;73.10;;
67900;Laerm;54700;51.796;10.956;2023-11-21T11:49:23;62.45;37.06;72.90;;
67900;Laerm;54700;51.796;10.956;2023-11-21T11:55:05;64.19;47.01;72.71;;
67900;Laerm;54700;51.796;10.956;2023-11-21T11:57:36;64.00;44.75;72.90;;
67900;Laerm;54700;51.796;10.956;2023-11-21T12:00:17;63.18;41.14;74.11;;
67900;Laerm;54700;51.796;10.956;2023-11-21T12:02:53;62.61;39.14;71.87;;
67900;Laerm;54700;51.796;10.956;2023-11-21T12:05:33;63.04;40.39;71.46;;
67900;Laerm;54700;51.796;10.956;2023-11-21T12:08:18;65.04;45.55;77.53;;
67900;Laerm;54700;51.796;10.956;2023-11-21T12:11:01;64.33;40.23;74.18;;
67900;Laerm;54700;51.796;10.956;2023-11-21T12:13:31;67.11;51.69;79.83;;
67900;Laerm;54700;51.796;10.956;2023-11-21T12:16:02;64.26;44.93;77.69;;
67900;Laerm;54700;51.796;10.956;2023-11-21T12:18:34;66.38;42.27;78.75;;
67900;Laerm;54700;51.796;10.956;2023-11-21T12:21:09;61.76;39.46;69.58;;
67900;Laerm;54700;51.796;10.956;2023-11-21T12:23:37;65.19;41.61;72.05;;
67900;Laerm;54700;51.796;10.956;2023-11-21T12:26:05;63.42;40.27;72.64;;
67900;Laerm;54700;51.796;10.956;2023-11-21T12:28:36;63.53;41.10;74.50;;
67900;Laerm;54700;51.796;10.956;2023-11-21T12:31:10;63.43;41.08;72.48;;
67900;Laerm;54700;51.796;10.956;2023-11-21T12:33:38;66.73;55.27;74.25;;
67900;Laerm;54700;51.796;10.956;2023-11-21T12:36:11;63.79;48.49;73.62;;
67900;Laerm;54700;51.796;10.956;2023-11-21T12:38:38;63.33;49.23;70.80;;
67900;Laerm;54700;51.796;10.956;2023-11-21T12:41:13;63.76;51.37;76.76;;
67900;Laerm;54700;51.796;10.956;2023-11-21T12:43:56;64.73;45.67;77.24;;
67900;Laerm;54700;51.796;10.956;2023-11-21T12:46:28;65.92;52.64;82.36;;
67900;Laerm;54700;51.796;10.956;2023-11-21T12:49:00;64.32;51.18;79.53;;
67900;Laerm;54700;51.796;10.956;2023-11-21T12:51:36;64.91;49.96;74.06;;
67900;Laerm;54700;51.796;10.956;2023-11-21T12:54:17;64.26;49.68;79.25;;
67900;Laerm;54700;51.796;10.956;2023-11-21T12:56:46;65.66;50.46;71.66;;
67900;Laerm;54700;51.796;10.956;2023-11-21T12:59:27;64.27;40.29;72.87;;
67900;Laerm;54700;51.796;10.956;2023-11-21T13:02:15;64.55;43.87;73.91;;
67900;Laerm;54700;51.796;10.956;2023-11-21T13:05:05;62.88;40.96;71.71;;
67900;Laerm;54700;51.796;10.956;2023-11-21T13:07:59;65.37;49.24;82.83;;
67900;Laerm;54700;51.796;10.956;2023-11-21T13:10:45;63.78;43.09;72.02;;
67900;Laerm;54700;51.796;10.956;2023-11-21T13:13:25;63.18;39.22;76.18;;
67900;Laerm;54700;51.796;10.956;2023-11-21T13:16:03;64.80;39.97;73.53;;
67900;Laerm;54700;51.796;10.956;2023-11-21T13:18:39;66.70;46.59;75.44;;
67900;Laerm;54700;51.796;10.956;2023-11-21T13:21:10;65.10;44.06;73.76;;
67900;Laerm;54700;51.796;10.956;2023-11-21T13:23:58;63.47;44.32;70.67;;
67900;Laerm;54700;51.796;10.956;2023-11-21T13:26:30;65.36;45.18;76.58;;
67900;Laerm;54700;51.796;10.956;2023-11-21T13:29:01;63.72;43.25;72.09;;
67900;Laerm;54700;51.796;10.956;2023-11-21T13:31:51;65.05;41.25;77.27;;
67900;Laerm;54700;51.796;10.956;2023-11-21T13:34:21;64.90;49.10;75.53;;
67900;Laerm;54700;51.796;10.956;2023-11-21T13:36:54;65.15;44.40;73.76;;
67900;Laerm;54700;51.796;10.956;2023-11-21T13:39:49;65.66;43.78;77.86;;
67900;Laerm;54700;51.796;10.956;2023-11-21T13:42:19;64.03;49.77;72.07;;
67900;Laerm;54700;51.796;10.956;2023-11-21T13:44:59;64.02;47.55;71.14;;
67900;Laerm;54700;51.796;10.956;2023-11-21T13:47:38;64.29;44.53;71.63;;
67900;Laerm;54700;51.796;10.956;2023-11-21T13:50:26;63.45;45.71;71.47;;
67900;Laerm;54700;51.796;10.956;2023-11-21T13:53:08;65.50;47.77;77.29;;
67900;Laerm;54700;51.796;10.956;2023-11-21T13:55:54;64.40;50.14;73.42;;
67900;Laerm;54700;51.796;10.956;2023-11-21T13:58:33;64.56;48.18;74.95;;
67900;Laerm;54700;51.796;10.956;2023-11-21T14:01:17;65.89;44.84;74.96;;
67900;Laerm;54700;51.796;10.956;2023-11-21T14:04:14;65.72;54.77;74.01;;
67900;Laerm;54700;51.796;10.956;2023-11-21T14:07:05;64.13;41.43;72.90;;
67900;Laerm;54700;51.796;10.956;2023-11-21T14:09:46;62.98;42.78;72.34;;
67900;Laerm;54700;51.796;10.956;2023-11-21T14:12:31;62.73;44.80;70.07;;
67900;Laerm;54700;51.796;10.956;2023-11-21T14:15:08;62.21;48.02;70.73;;
67900;Laerm;54700;51.796;10.956;2023-11-21T14:17:37;62.64;46.80;71.19;;
67900;Laerm;54700;51.796;10.956;2023-11-21T14:20:11;62.97;46.75;72.16;;
67900;Laerm;54700;51.796;10.956;2023-11-21T14:22:49;63.38;47.55;78.38;;
67900;Laerm;54700;51.796;10.956;2023-11-21T14:25:17;66.32;46.25;87.40;;